createdAt,value
2022-08-17T00:01:33.343Z,76.73
2022-08-17T00:04:20.777Z,76.52
2022-08-17T00:06:49.225Z,76.82
2022-08-17T00:09:19.005Z,77.11
2022-08-17T00:12:34.623Z,77.45
2022-08-17T00:14:35.207Z,77.57
2022-08-17T00:17:03.833Z,77.71
2022-08-17T00:19:32.574Z,77.57
2022-08-17T00:22:33.173Z,77.47
2022-08-17T00:24:50.347Z,77.23
2022-08-17T00:27:17.421Z,77.53
2022-08-17T00:29:45.861Z,77.51
2022-08-17T00:33:14.623Z,77.73
2022-08-17T00:35:05.632Z,78.03
2022-08-17T00:37:32.332Z,78.12
2022-08-17T00:39:59.198Z,78.71
2022-08-17T00:42:30.815Z,79.38
2022-08-17T00:44:58.506Z,79.78
2022-08-17T00:47:25.408Z,79.73
2022-08-17T00:49:52.087Z,79.42
2022-08-17T00:52:21.930Z,79.81
2022-08-17T00:54:52.286Z,79.58
2022-08-17T00:57:23.974Z,79.10
2022-08-17T01:00:03.184Z,79.06
2022-08-17T01:02:40.354Z,78.77
2022-08-17T01:05:15.030Z,78.66
2022-08-17T01:07:43.073Z,79.09
2022-08-17T01:10:58.125Z,78.63
2022-08-17T01:13:02.568Z,78.81
2022-08-17T01:15:31.352Z,78.92
2022-08-17T01:17:58.108Z,78.66
2022-08-17T01:20:25.170Z,78.78
2022-08-17T01:22:52.415Z,79.03
2022-08-17T01:25:20.673Z,79.29
2022-08-17T01:27:48.380Z,78.98
2022-08-17T01:30:57.437Z,79.02
2022-08-17T01:33:04.384Z,78.92
2022-08-17T01:35:31.145Z,79.26
2022-08-17T01:37:57.779Z,78.88
2022-08-17T01:40:39.162Z,78.83
2022-08-17T01:43:10.555Z,79.20
2022-08-17T01:45:48.495Z,79.38
2022-08-17T01:48:32.246Z,79.64
2022-08-17T01:50:59.282Z,79.83
2022-08-17T01:53:35.535Z,79.91
2022-08-17T01:56:11.831Z,80.39
2022-08-17T01:58:39.503Z,80.76
2022-08-17T02:01:08.491Z,80.65
2022-08-17T02:03:36.919Z,80.65
2022-08-17T02:06:05.887Z,80.64
2022-08-17T02:09:02.672Z,81.12
2022-08-17T02:11:32.446Z,81.29
2022-08-17T02:14:03.373Z,80.74
2022-08-17T02:16:37.611Z,80.70
2022-08-17T02:19:11.399Z,80.80
2022-08-17T02:21:39.796Z,80.84
2022-08-17T02:24:13.397Z,80.89
2022-08-17T02:26:40.111Z,81.01
2022-08-17T02:29:07.302Z,81.08
2022-08-17T02:31:35.605Z,81.44
2022-08-17T02:34:04.574Z,81.88
2022-08-17T02:36:34.016Z,82.07
2022-08-17T02:39:02.363Z,82.37
2022-08-17T02:41:29.093Z,82.33
2022-08-17T02:43:55.756Z,82.22
2022-08-17T02:46:22.710Z,82.79
2022-08-17T02:48:49.745Z,82.65
2022-08-17T02:51:16.559Z,83.20
2022-08-17T02:53:43.276Z,83.52
2022-08-17T02:56:10.247Z,83.69
2022-08-17T02:58:37.008Z,82.37
2022-08-17T03:01:08.681Z,81.77
2022-08-17T03:03:39.670Z,82.86
2022-08-17T03:06:07.793Z,82.91
2022-08-17T03:08:35.388Z,83.61
2022-08-17T03:11:02.170Z,83.84
2022-08-17T03:13:30.782Z,83.91
2022-08-17T03:15:57.584Z,83.82
2022-08-17T03:18:26.305Z,84.19
2022-08-17T03:21:00.872Z,84.66
2022-08-17T03:23:29.658Z,84.78
2022-08-17T03:25:57.735Z,84.57
2022-08-17T03:28:25.729Z,84.65
2022-08-17T03:30:52.704Z,84.66
2022-08-17T03:33:19.953Z,84.40
2022-08-17T03:35:46.838Z,83.74
2022-08-17T03:38:15.075Z,84.80
2022-08-17T03:40:59.056Z,85.62
2022-08-17T03:43:30.320Z,85.32
2022-08-17T03:46:28.123Z,84.78
2022-08-17T03:49:19.870Z,84.80
2022-08-17T03:52:18.981Z,84.42
2022-08-17T03:55:04.370Z,83.86
2022-08-17T03:57:32.465Z,83.72
2022-08-17T03:59:59.845Z,84.04
2022-08-17T04:02:32.518Z,83.96
2022-08-17T04:04:59.781Z,83.98
2022-08-17T04:07:29.414Z,84.11
2022-08-17T04:09:58.084Z,84.09
2022-08-17T04:12:25.913Z,84.23
2022-08-17T04:14:54.931Z,83.99
2022-08-17T04:17:24.493Z,84.60
2022-08-17T04:19:51.780Z,84.87
2022-08-17T04:22:32.421Z,85.20
2022-08-17T04:25:15.690Z,84.58
2022-08-17T04:27:42.476Z,84.37
2022-08-17T04:30:10.189Z,84.24
2022-08-17T04:33:05.367Z,84.45
2022-08-17T04:35:36.782Z,84.33
2022-08-17T04:38:03.859Z,84.05
2022-08-17T04:40:48.980Z,83.74
2022-08-17T04:43:19.115Z,83.52
2022-08-17T04:46:07.642Z,83.47
2022-08-17T04:48:40.957Z,83.08
2022-08-17T04:51:11.761Z,83.35
2022-08-17T04:53:41.065Z,83.03
2022-08-17T04:56:11.761Z,82.94
2022-08-17T04:58:48.258Z,82.99
2022-08-17T05:01:23.150Z,82.78
2022-08-17T05:03:56.180Z,83.01
2022-08-17T05:06:23.631Z,83.57
2022-08-17T05:08:50.395Z,83.59
2022-08-17T05:11:17.065Z,83.61
2022-08-17T05:13:44.772Z,83.51
2022-08-17T05:16:12.029Z,83.24
2022-08-17T05:18:39.173Z,83.31
2022-08-17T05:21:06.907Z,83.48
2022-08-17T05:23:41.902Z,83.98
2022-08-17T05:26:24.815Z,83.80
2022-08-17T05:28:54.996Z,83.78
2022-08-17T05:31:24.551Z,83.69
2022-08-17T05:33:51.416Z,83.98
2022-08-17T05:36:42.397Z,83.95
2022-08-17T05:39:04.968Z,83.88
2022-08-17T05:41:31.648Z,83.58
2022-08-17T05:43:58.351Z,83.44
2022-08-17T05:46:28.675Z,83.00
2022-08-17T05:49:07.951Z,83.02
2022-08-17T05:52:18.807Z,83.37
2022-08-17T05:55:23.218Z,83.66
2022-08-17T05:58:16.975Z,84.70
2022-08-17T06:01:13.284Z,84.44
2022-08-17T06:03:58.776Z,84.14
2022-08-17T06:06:58.153Z,84.25
2022-08-17T06:09:40.151Z,84.31
2022-08-17T06:13:02.407Z,84.10
2022-08-17T06:16:33.341Z,83.43
2022-08-17T06:19:13.347Z,83.44
2022-08-17T06:21:44.986Z,83.02
2022-08-17T06:24:28.561Z,82.95
2022-08-17T06:27:21.747Z,82.88
2022-08-17T06:30:16.123Z,82.54
2022-08-17T06:32:44.674Z,81.70
2022-08-17T06:35:15.404Z,80.88
2022-08-17T06:38:38.188Z,80.21
2022-08-17T06:41:36.505Z,80.14
2022-08-17T06:44:43.356Z,79.92
2022-08-17T06:47:28.512Z,79.03
2022-08-17T06:50:22.129Z,78.48
2022-08-17T06:52:58.127Z,77.72
2022-08-17T06:55:44.175Z,77.39
2022-08-17T06:58:15.954Z,76.89
2022-08-17T07:00:47.117Z,77.37
2022-08-17T07:03:37.585Z,77.04
2022-08-17T07:06:14.442Z,76.41
2022-08-17T07:09:02.423Z,78.13
2022-08-17T07:11:51.626Z,77.02
2022-08-17T07:14:41.024Z,76.09
2022-08-17T07:17:13.994Z,75.63
2022-08-17T07:19:45.368Z,75.48
2022-08-17T07:22:57.552Z,75.64
2022-08-17T07:25:27.514Z,75.46
2022-08-17T07:27:59.799Z,74.75
2022-08-17T07:30:28.297Z,74.41
2022-08-17T07:33:03.326Z,73.46
2022-08-17T07:35:40.710Z,73.32
2022-08-17T07:38:24.749Z,72.88
2022-08-17T07:41:03.847Z,73.38
2022-08-17T07:44:00.034Z,73.54
2022-08-17T07:47:05.831Z,72.54
2022-08-17T07:49:42.050Z,72.27
2022-08-17T07:52:51.408Z,72.75
2022-08-17T07:55:34.992Z,72.07
2022-08-17T07:58:03.610Z,72.02
2022-08-17T08:00:32.277Z,72.24
2022-08-17T08:03:31.909Z,72.01
2022-08-17T08:06:02.019Z,72.41
2022-08-17T08:08:42.634Z,71.57
2022-08-17T08:11:12.766Z,71.71
2022-08-17T08:13:43.857Z,71.27
2022-08-17T08:16:29.564Z,69.99
2022-08-17T08:19:01.269Z,70.11
2022-08-17T08:22:06.786Z,69.46
2022-08-17T08:25:07.319Z,69.47
2022-08-17T08:27:36.670Z,68.67
2022-08-17T08:30:14.443Z,69.04
2022-08-17T08:33:18.284Z,67.83
2022-08-17T08:36:57.018Z,68.21
2022-08-17T08:39:30.973Z,68.17
2022-08-17T08:42:11.674Z,67.72
2022-08-17T08:44:59.981Z,67.76
2022-08-17T08:48:56.311Z,67.44
2022-08-17T08:51:21.898Z,66.55
2022-08-17T08:54:41.296Z,65.58
2022-08-17T08:57:34.079Z,65.21
2022-08-17T09:00:25.598Z,64.33
2022-08-17T09:03:51.857Z,64.94
2022-08-17T09:07:03.918Z,64.09
2022-08-17T09:09:50.469Z,63.30
2022-08-17T09:12:30.907Z,63.28
2022-08-17T09:15:09.447Z,63.28
2022-08-17T09:19:02.841Z,61.60
2022-08-17T09:21:48.688Z,63.03
2022-08-17T09:24:40.146Z,63.00
2022-08-17T09:27:14.291Z,62.39
2022-08-17T09:29:49.443Z,60.99
2022-08-17T09:32:22.199Z,61.52
2022-08-17T09:35:02.008Z,60.85
2022-08-17T09:37:56.222Z,60.80
2022-08-17T09:40:52.851Z,60.23
2022-08-17T09:43:28.685Z,61.06
2022-08-17T09:46:01.880Z,59.98
2022-08-17T09:48:56.591Z,59.64
2022-08-17T09:51:35.396Z,59.33
2022-08-17T09:54:34.851Z,59.58
2022-08-17T09:57:32.471Z,59.59
2022-08-17T10:00:30.578Z,58.81
2022-08-17T10:03:26.058Z,60.34
2022-08-17T10:06:22.266Z,59.39
2022-08-17T10:09:08.251Z,57.35
2022-08-17T10:12:30.241Z,58.67
2022-08-17T10:15:13.551Z,58.80
2022-08-17T10:17:59.730Z,58.63
2022-08-17T10:20:30.925Z,57.27
2022-08-17T10:23:24.751Z,55.13
2022-08-17T10:26:15.407Z,56.13
2022-08-17T10:28:59.201Z,55.99
2022-08-17T10:31:41.056Z,56.22
2022-08-17T10:34:50.901Z,55.57
2022-08-17T10:37:39.288Z,51.44
2022-08-17T10:40:57.450Z,51.93
2022-08-17T10:44:37.117Z,54.39
2022-08-17T10:47:09.117Z,52.51
2022-08-17T10:49:38.840Z,51.99
2022-08-17T10:52:50.137Z,51.40
2022-08-17T10:55:19.085Z,52.35
2022-08-17T10:57:49.520Z,52.13
2022-08-17T11:01:09.528Z,52.01
2022-08-17T11:03:36.285Z,51.41
2022-08-17T11:06:18.039Z,51.42
2022-08-17T11:09:44.222Z,50.58
2022-08-17T11:12:44.905Z,49.53
2022-08-17T11:15:50.537Z,49.98
2022-08-17T11:19:14.019Z,51.18
2022-08-17T11:22:09.255Z,49.35
2022-08-17T11:24:39.935Z,49.52
2022-08-17T11:27:29.130Z,51.12
2022-08-17T11:30:20.981Z,47.37
2022-08-17T11:32:54.738Z,49.32
2022-08-17T11:35:21.915Z,47.50
2022-08-17T11:38:10.823Z,49.43
2022-08-17T11:41:29.134Z,47.82
2022-08-17T11:44:37.774Z,49.57
2022-08-17T11:48:27.037Z,47.98
2022-08-17T11:51:46.358Z,46.03
2022-08-17T11:54:51.563Z,45.61
2022-08-17T12:00:51.896Z,46.08
2022-08-17T12:03:54.056Z,44.74
2022-08-17T12:06:41.570Z,45.33
2022-08-17T12:09:25.059Z,45.92
2022-08-17T12:12:13.263Z,47.27
2022-08-17T12:17:50.413Z,46.18
2022-08-17T12:20:40.665Z,44.33
2022-08-17T12:23:22.522Z,43.41
2022-08-17T12:26:17.299Z,44.25
2022-08-17T12:28:47.060Z,44.97
2022-08-17T12:31:23.378Z,44.21
2022-08-17T12:33:51.867Z,44.04
2022-08-17T12:36:25.228Z,44.96
2022-08-17T12:39:13.705Z,42.55
2022-08-17T12:41:45.043Z,42.80
2022-08-17T12:44:21.586Z,42.77
2022-08-17T12:47:21.859Z,44.46
2022-08-17T12:49:54.579Z,41.50
2022-08-17T12:52:27.181Z,41.46
2022-08-17T12:55:22.487Z,43.70
2022-08-17T12:57:56.756Z,42.81
2022-08-17T13:00:30.416Z,41.10
2022-08-17T13:03:19.314Z,43.13
2022-08-17T13:06:03.938Z,42.46
2022-08-17T13:08:37.881Z,44.51
2022-08-17T13:11:11.061Z,39.90
2022-08-17T13:13:41.161Z,40.87
2022-08-17T13:16:17.117Z,41.92
2022-08-17T13:19:04.847Z,42.86
2022-08-17T13:21:33.672Z,41.56
2022-08-17T13:24:07.912Z,40.54
2022-08-17T13:26:38.678Z,43.22
2022-08-17T13:29:08.431Z,39.39
2022-08-17T13:31:52.771Z,39.52
2022-08-17T13:35:12.341Z,39.07
2022-08-17T13:37:42.706Z,39.17
2022-08-17T13:40:32.231Z,37.45
2022-08-17T13:42:59.053Z,37.35
2022-08-17T13:45:34.716Z,38.08
2022-08-17T13:48:13.673Z,36.80
2022-08-17T13:51:22.420Z,38.93
2022-08-17T13:53:54.262Z,39.41
2022-08-17T13:56:45.216Z,40.05
2022-08-17T13:59:48.171Z,38.45
2022-08-17T14:02:13.413Z,37.89
2022-08-17T14:04:42.036Z,40.23
2022-08-17T14:07:31.732Z,38.15
2022-08-17T14:10:02.754Z,37.21
2022-08-17T14:12:32.108Z,36.05
2022-08-17T14:14:59.465Z,38.29
2022-08-17T14:17:29.004Z,38.48
2022-08-17T14:19:55.745Z,36.95
2022-08-17T14:22:31.651Z,39.15
2022-08-17T14:25:01.772Z,38.85
2022-08-17T14:27:31.848Z,38.37
2022-08-17T14:29:58.543Z,39.34
2022-08-17T14:32:32.665Z,37.50
2022-08-17T14:35:01.147Z,38.56
2022-08-17T14:37:30.276Z,38.07
2022-08-17T14:40:00.383Z,35.74
2022-08-17T14:42:31.228Z,38.31
2022-08-17T14:45:05.977Z,34.21
2022-08-17T14:47:34.126Z,36.96
2022-08-17T14:50:02.659Z,35.29
2022-08-17T14:52:29.563Z,33.61
2022-08-17T14:54:57.508Z,35.55
2022-08-17T14:57:34.148Z,34.82
2022-08-17T15:00:01.784Z,35.09
2022-08-17T15:02:29.331Z,36.95
2022-08-17T15:05:05.417Z,37.40
2022-08-17T15:07:32.183Z,33.74
2022-08-17T15:10:01.547Z,34.33
2022-08-17T15:12:33.238Z,34.16
2022-08-17T15:15:04.470Z,35.16
2022-08-17T15:17:43.915Z,35.01
2022-08-17T15:20:27.925Z,34.96
2022-08-17T15:22:56.016Z,37.38
2022-08-17T15:25:24.469Z,37.33
2022-08-17T15:27:51.575Z,38.59
2022-08-17T15:30:19.503Z,39.11
2022-08-17T15:32:51.004Z,35.93
2022-08-17T15:35:27.920Z,36.66
2022-08-17T15:38:04.669Z,36.66
2022-08-17T15:40:34.965Z,38.47
2022-08-17T15:43:08.430Z,37.66
2022-08-17T15:45:35.394Z,37.78
2022-08-17T15:48:02.451Z,37.34
2022-08-17T15:50:29.171Z,36.38
2022-08-17T15:52:58.704Z,35.97
2022-08-17T15:55:27.803Z,36.02
2022-08-17T15:57:54.845Z,38.55
2022-08-17T16:00:24.078Z,35.97
2022-08-17T16:03:46.742Z,36.44
2022-08-17T16:05:37.675Z,37.56
2022-08-17T16:08:07.512Z,37.93
2022-08-17T16:10:34.979Z,37.83
2022-08-17T16:13:03.857Z,37.66
2022-08-17T16:15:33.544Z,37.50
2022-08-17T16:18:00.276Z,38.16
2022-08-17T16:20:27.681Z,36.67
2022-08-17T16:22:55.171Z,37.23
2022-08-17T16:25:50.422Z,37.37
2022-08-17T16:28:13.901Z,38.25
2022-08-17T16:30:41.302Z,38.68
2022-08-17T16:33:11.338Z,38.39
2022-08-17T16:35:38.482Z,38.80
2022-08-17T16:38:05.292Z,40.21
2022-08-17T16:40:35.840Z,39.83
2022-08-17T16:43:04.251Z,38.84
2022-08-17T16:45:40.108Z,39.81
2022-08-17T16:48:08.440Z,36.82
2022-08-17T16:50:35.592Z,36.85
2022-08-17T16:53:09.078Z,38.11
2022-08-17T16:55:37.008Z,38.25
2022-08-17T16:58:08.759Z,38.38
2022-08-17T17:00:36.454Z,38.76
2022-08-17T17:03:20.684Z,39.21
2022-08-17T17:06:22.798Z,39.90
2022-08-17T17:09:06.984Z,39.99
2022-08-17T17:11:57.091Z,38.99
2022-08-17T17:14:28.358Z,38.92
2022-08-17T17:17:20.954Z,39.79
2022-08-17T17:20:11.839Z,39.41
2022-08-17T17:23:07.999Z,39.29
2022-08-17T17:25:41.543Z,40.08
2022-08-17T17:28:34.244Z,40.21
2022-08-17T17:31:15.827Z,40.41
2022-08-17T17:33:53.292Z,40.89
2022-08-17T17:36:29.914Z,41.06
2022-08-17T17:39:05.273Z,41.31
2022-08-17T17:41:48.916Z,41.18
2022-08-17T17:44:20.024Z,41.21
2022-08-17T17:46:55.339Z,41.87
2022-08-17T17:49:22.242Z,42.33
2022-08-17T17:52:47.620Z,42.63
2022-08-17T17:56:18.754Z,42.75
2022-08-17T17:59:44.199Z,42.53
2022-08-17T18:02:52.984Z,42.75
2022-08-17T18:06:09.750Z,46.87
2022-08-17T18:09:36.275Z,47.45
2022-08-17T18:12:14.703Z,48.17
2022-08-17T18:15:21.484Z,48.79
2022-08-17T18:18:23.228Z,48.99
2022-08-17T18:20:56.218Z,49.97
2022-08-17T18:23:27.933Z,50.14
2022-08-17T18:25:55.567Z,50.31
2022-08-17T18:28:39.756Z,50.43
2022-08-17T18:31:20.246Z,50.83
2022-08-17T18:37:16.037Z,52.03
2022-08-17T18:39:46.110Z,52.04
2022-08-17T18:42:25.955Z,52.93
2022-08-17T18:44:55.266Z,53.64
2022-08-17T18:47:25.463Z,54.28
2022-08-17T18:50:16.537Z,54.78
2022-08-17T18:52:43.223Z,55.47
2022-08-17T18:55:36.340Z,56.47
2022-08-17T18:58:20.531Z,56.67
2022-08-17T19:00:49.235Z,56.58
2022-08-17T19:03:15.923Z,55.85
2022-08-17T19:05:55.726Z,55.70
2022-08-17T19:08:35.501Z,56.03
2022-08-17T19:11:09.864Z,56.05
2022-08-17T19:14:03.209Z,56.60
2022-08-17T19:16:38.568Z,57.20
2022-08-17T19:19:13.383Z,56.99
2022-08-17T19:21:49.250Z,57.16
2022-08-17T19:24:22.029Z,57.33
2022-08-17T19:26:56.809Z,57.55
2022-08-17T19:30:02.780Z,56.02
2022-08-17T19:32:35.418Z,56.56
2022-08-17T19:35:03.741Z,57.54
2022-08-17T19:38:12.989Z,57.21
2022-08-17T19:41:11.376Z,57.59
2022-08-17T19:43:58.224Z,57.63
2022-08-17T19:47:00.826Z,58.11
2022-08-17T19:49:41.124Z,57.72
2022-08-17T19:52:55.207Z,58.49
2022-08-17T19:55:36.252Z,57.68
2022-08-17T19:58:48.204Z,58.37
2022-08-17T20:01:25.113Z,59.00
2022-08-17T20:04:06.775Z,59.26
2022-08-17T20:06:37.356Z,59.48
2022-08-17T20:09:14.938Z,59.67
2022-08-17T20:11:48.622Z,60.29
2022-08-17T20:14:20.381Z,60.74
2022-08-17T20:16:47.639Z,60.86
2022-08-17T20:19:36.908Z,61.54
2022-08-17T20:22:14.439Z,61.91
2022-08-17T20:25:06.991Z,61.84
2022-08-17T20:27:36.349Z,62.64
2022-08-17T20:30:12.107Z,62.91
2022-08-17T20:32:58.067Z,63.17
2022-08-17T20:35:26.421Z,63.56
2022-08-17T20:37:57.693Z,63.58
2022-08-17T20:40:31.313Z,63.66
2022-08-17T20:42:59.106Z,63.57
2022-08-17T20:45:54.123Z,63.61
2022-08-17T20:48:42.929Z,63.54
2022-08-17T20:51:13.954Z,63.37
2022-08-17T20:54:07.012Z,63.60
2022-08-17T20:56:48.506Z,63.62
2022-08-17T21:00:12.931Z,63.65
2022-08-17T21:02:41.787Z,64.03
2022-08-17T21:05:34.607Z,64.02
2022-08-17T21:08:45.913Z,64.32
2022-08-17T21:12:03.243Z,64.75
2022-08-17T21:17:38.264Z,64.26
2022-08-17T21:37:48.565Z,64.30
2022-08-17T21:40:18.378Z,64.59
2022-08-17T21:42:50.675Z,64.56
2022-08-17T21:45:35.129Z,64.73
2022-08-17T21:48:24.631Z,65.03
2022-08-17T21:51:10.426Z,65.38
2022-08-17T21:54:05.282Z,65.52
2022-08-17T21:56:38.714Z,65.99
2022-08-17T21:59:16.070Z,66.70
2022-08-17T22:01:43.262Z,66.52
2022-08-17T22:04:26.122Z,66.71
2022-08-17T22:06:57.297Z,66.78
2022-08-17T22:09:53.673Z,65.94
2022-08-17T22:12:27.158Z,65.74
2022-08-17T22:15:00.624Z,65.56
2022-08-17T22:17:40.257Z,65.19
2022-08-17T22:20:14.485Z,64.59
2022-08-17T22:23:32.284Z,63.98
2022-08-17T22:26:05.159Z,63.75
2022-08-17T22:28:52.301Z,63.99
2022-08-17T22:31:28.386Z,64.36
2022-08-17T22:34:13.864Z,64.06
2022-08-17T22:36:42.280Z,64.58
2022-08-17T22:39:29.106Z,65.42
2022-08-17T22:42:00.926Z,65.81
2022-08-17T22:44:36.474Z,66.02
2022-08-17T22:47:39.501Z,66.00
2022-08-17T22:50:14.727Z,66.44
2022-08-17T22:53:03.662Z,66.21
2022-08-17T22:55:51.578Z,65.67
2022-08-17T22:58:40.647Z,65.52
2022-08-17T23:01:29.664Z,65.66
2022-08-17T23:04:02.076Z,66.02
2022-08-17T23:06:29.999Z,66.17
2022-08-17T23:08:57.992Z,66.22
2022-08-17T23:11:36.970Z,66.04
2022-08-17T23:14:15.668Z,65.99
2022-08-17T23:16:45.141Z,66.65
2022-08-17T23:19:15.265Z,67.25
2022-08-17T23:21:44.745Z,68.09
2022-08-17T23:24:17.391Z,68.47
2022-08-17T23:26:43.901Z,68.40
2022-08-17T23:29:10.585Z,67.72
2022-08-17T23:31:38.760Z,67.40
2022-08-17T23:34:15.202Z,66.98
2022-08-17T23:36:45.414Z,66.68
2022-08-17T23:39:12.423Z,66.48
2022-08-17T23:41:40.109Z,66.36
2022-08-17T23:44:07.423Z,66.09
2022-08-17T23:46:34.676Z,66.06
2022-08-17T23:49:01.793Z,65.87
2022-08-17T23:51:34.605Z,65.91
2022-08-17T23:54:08.211Z,65.97
2022-08-17T23:56:44.127Z,66.54
2022-08-17T23:59:11.351Z,66.50
